sensor_id;sensor_type;location;lat;lon;timestamp;pressure;altitude;pressure_sealevel;temperature;humidity
34297;BME280;20564;42.902;25.336;2022-12-29T00:01:00;98155.06;;;2.21;96.86
34297;BME280;20564;42.902;25.336;2022-12-29T00:03:27;98159.47;;;2.18;96.80
34297;BME280;20564;42.902;25.336;2022-12-29T00:05:55;98163.75;;;2.20;96.99
34297;BME280;20564;42.902;25.336;2022-12-29T00:08:22;98160.25;;;2.21;96.58
34297;BME280;20564;42.902;25.336;2022-12-29T00:11:08;98157.44;;;2.05;95.82
34297;BME280;20564;42.902;25.336;2022-12-29T00:13:35;98158.53;;;1.99;96.98
34297;BME280;20564;42.902;25.336;2022-12-29T00:16:21;98166.56;;;1.93;96.63
34297;BME280;20564;42.902;25.336;2022-12-29T00:18:48;98169.13;;;1.95;97.39
34297;BME280;20564;42.902;25.336;2022-12-29T00:21:17;98174.06;;;1.79;96.76
34297;BME280;20564;42.902;25.336;2022-12-29T00:24:03;98180.97;;;1.80;98.01
34297;BME280;20564;42.902;25.336;2022-12-29T00:27:12;98181.13;;;1.75;98.33
34297;BME280;20564;42.902;25.336;2022-12-29T00:29:56;98188.09;;;1.75;98.25
34297;BME280;20564;42.902;25.336;2022-12-29T00:32:42;98184.00;;;1.69;98.09
34297;BME280;20564;42.902;25.336;2022-12-29T00:35:30;98179.03;;;1.63;97.04
34297;BME280;20564;42.902;25.336;2022-12-29T00:38:01;98189.66;;;1.57;97.61
34297;BME280;20564;42.902;25.336;2022-12-29T00:40:49;98201.34;;;1.45;98.90
34297;BME280;20564;42.902;25.336;2022-12-29T00:43:34;98196.91;;;1.49;99.32
34297;BME280;20564;42.902;25.336;2022-12-29T00:46:20;98203.19;;;1.43;97.63
34297;BME280;20564;42.902;25.336;2022-12-29T00:48:47;98218.13;;;1.36;97.59
34297;BME280;20564;42.902;25.336;2022-12-29T00:51:32;98209.44;;;1.37;98.94
34297;BME280;20564;42.902;25.336;2022-12-29T00:53:59;98213.06;;;1.33;98.60
34297;BME280;20564;42.902;25.336;2022-12-29T00:56:26;98223.94;;;1.43;100.00
34297;BME280;20564;42.902;25.336;2022-12-29T00:59:03;98211.50;;;1.51;100.00
34297;BME280;20564;42.902;25.336;2022-12-29T01:01:30;98213.00;;;1.57;100.00
34297;BME280;20564;42.902;25.336;2022-12-29T01:03:58;98219.84;;;1.59;99.78
34297;BME280;20564;42.902;25.336;2022-12-29T01:06:30;98214.13;;;1.50;99.86
34297;BME280;20564;42.902;25.336;2022-12-29T01:08:57;98216.59;;;1.54;100.00
34297;BME280;20564;42.902;25.336;2022-12-29T01:11:43;98214.66;;;1.59;100.00
34297;BME280;20564;42.902;25.336;2022-12-29T01:14:09;98204.75;;;1.69;100.00
34297;BME280;20564;42.902;25.336;2022-12-29T01:16:36;98212.13;;;1.80;100.00
34297;BME280;20564;42.902;25.336;2022-12-29T01:19:03;98215.50;;;1.82;100.00
34297;BME280;20564;42.902;25.336;2022-12-29T01:21:30;98210.59;;;1.96;100.00
34297;BME280;20564;42.902;25.336;2022-12-29T01:23:59;98206.97;;;2.00;100.00
34297;BME280;20564;42.902;25.336;2022-12-29T01:26:26;98209.19;;;2.09;100.00
34297;BME280;20564;42.902;25.336;2022-12-29T01:28:52;98207.38;;;2.11;100.00
34297;BME280;20564;42.902;25.336;2022-12-29T01:31:19;98200.97;;;2.20;100.00
34297;BME280;20564;42.902;25.336;2022-12-29T01:33:46;98205.50;;;2.15;99.47
34297;BME280;20564;42.902;25.336;2022-12-29T01:36:14;98205.44;;;2.16;100.00
34297;BME280;20564;42.902;25.336;2022-12-29T01:38:43;98194.22;;;2.16;100.00
34297;BME280;20564;42.902;25.336;2022-12-29T01:41:12;98197.38;;;2.23;100.00
34297;BME280;20564;42.902;25.336;2022-12-29T01:43:51;98202.44;;;2.26;100.00
34297;BME280;20564;42.902;25.336;2022-12-29T01:48:57;98180.00;;;2.25;99.39
34297;BME280;20564;42.902;25.336;2022-12-29T01:51:27;98189.75;;;2.20;99.49
34297;BME280;20564;42.902;25.336;2022-12-29T01:53:58;98177.63;;;2.18;99.72
34297;BME280;20564;42.902;25.336;2022-12-29T01:56:27;98184.41;;;2.23;100.00
34297;BME280;20564;42.902;25.336;2022-12-29T01:59:02;98175.44;;;2.30;100.00
34297;BME280;20564;42.902;25.336;2022-12-29T02:01:31;98179.78;;;2.29;100.00
34297;BME280;20564;42.902;25.336;2022-12-29T02:03:59;98177.00;;;2.34;100.00
34297;BME280;20564;42.902;25.336;2022-12-29T02:06:53;98176.63;;;2.43;100.00
34297;BME280;20564;42.902;25.336;2022-12-29T02:09:22;98162.84;;;2.41;100.00
34297;BME280;20564;42.902;25.336;2022-12-29T02:11:50;98156.66;;;2.44;100.00
34297;BME280;20564;42.902;25.336;2022-12-29T02:14:18;98156.47;;;2.48;100.00
34297;BME280;20564;42.902;25.336;2022-12-29T02:22:27;98146.31;;;2.62;100.00
34297;BME280;20564;42.902;25.336;2022-12-29T02:27:55;98144.00;;;2.56;100.00
34297;BME280;20564;42.902;25.336;2022-12-29T02:30:45;98145.13;;;2.70;100.00
34297;BME280;20564;42.902;25.336;2022-12-29T02:33:28;98136.22;;;2.75;100.00
34297;BME280;20564;42.902;25.336;2022-12-29T02:36:39;98138.75;;;2.77;100.00
34297;BME280;20564;42.902;25.336;2022-12-29T02:43:08;98124.66;;;2.82;100.00
34297;BME280;20564;42.902;25.336;2022-12-29T02:48:09;98120.34;;;2.81;100.00
34297;BME280;20564;42.902;25.336;2022-12-29T02:50:50;98119.63;;;2.78;100.00
34297;BME280;20564;42.902;25.336;2022-12-29T02:53:19;98117.56;;;2.86;100.00
34297;BME280;20564;42.902;25.336;2022-12-29T02:56:10;98114.13;;;2.85;100.00
34297;BME280;20564;42.902;25.336;2022-12-29T02:58:37;98116.50;;;2.90;100.00
34297;BME280;20564;42.902;25.336;2022-12-29T03:01:16;98105.16;;;2.91;100.00
34297;BME280;20564;42.902;25.336;2022-12-29T03:04:06;98108.69;;;2.90;100.00
34297;BME280;20564;42.902;25.336;2022-12-29T03:09:36;98096.88;;;3.02;100.00
34297;BME280;20564;42.902;25.336;2022-12-29T03:15:45;98091.69;;;3.02;100.00
34297;BME280;20564;42.902;25.336;2022-12-29T03:18:41;98094.50;;;2.97;100.00
34297;BME280;20564;42.902;25.336;2022-12-29T03:21:43;98101.66;;;2.92;100.00
34297;BME280;20564;42.902;25.336;2022-12-29T03:24:32;98088.28;;;3.00;100.00
34297;BME280;20564;42.902;25.336;2022-12-29T03:27:04;98080.38;;;2.84;100.00
34297;BME280;20564;42.902;25.336;2022-12-29T03:29:36;98085.66;;;2.82;100.00
34297;BME280;20564;42.902;25.336;2022-12-29T03:32:08;98060.50;;;2.83;100.00
34297;BME280;20564;42.902;25.336;2022-12-29T03:34:36;98077.06;;;2.80;100.00
34297;BME280;20564;42.902;25.336;2022-12-29T03:37:17;98076.22;;;2.80;100.00
34297;BME280;20564;42.902;25.336;2022-12-29T03:39:45;98075.81;;;2.89;100.00
34297;BME280;20564;42.902;25.336;2022-12-29T03:42:21;98081.41;;;2.80;100.00
34297;BME280;20564;42.902;25.336;2022-12-29T03:44:54;98088.03;;;2.68;100.00
34297;BME280;20564;42.902;25.336;2022-12-29T03:47:23;98096.16;;;2.60;100.00
34297;BME280;20564;42.902;25.336;2022-12-29T03:49:51;98087.19;;;2.49;100.00
34297;BME280;20564;42.902;25.336;2022-12-29T03:52:18;98099.47;;;2.45;100.00
34297;BME280;20564;42.902;25.336;2022-12-29T03:54:48;98098.41;;;2.49;100.00
34297;BME280;20564;42.902;25.336;2022-12-29T03:57:15;98094.38;;;2.42;100.00
34297;BME280;20564;42.902;25.336;2022-12-29T03:59:42;98084.38;;;2.33;100.00
34297;BME280;20564;42.902;25.336;2022-12-29T04:02:09;98095.31;;;2.21;100.00
34297;BME280;20564;42.902;25.336;2022-12-29T04:04:38;98088.38;;;2.21;100.00
34297;BME280;20564;42.902;25.336;2022-12-29T04:07:05;98084.34;;;2.14;100.00
34297;BME280;20564;42.902;25.336;2022-12-29T04:09:32;98096.22;;;1.99;100.00
34297;BME280;20564;42.902;25.336;2022-12-29T04:11:59;98092.22;;;1.92;100.00
34297;BME280;20564;42.902;25.336;2022-12-29T04:14:29;98096.56;;;1.91;100.00
34297;BME280;20564;42.902;25.336;2022-12-29T04:16:56;98096.09;;;1.82;100.00
34297;BME280;20564;42.902;25.336;2022-12-29T04:19:23;98099.09;;;1.73;100.00
34297;BME280;20564;42.902;25.336;2022-12-29T04:21:50;98093.09;;;1.71;100.00
34297;BME280;20564;42.902;25.336;2022-12-29T04:24:20;98103.72;;;1.64;100.00
34297;BME280;20564;42.902;25.336;2022-12-29T04:26:47;98103.00;;;1.61;100.00
34297;BME280;20564;42.902;25.336;2022-12-29T04:29:14;98111.38;;;1.67;100.00
34297;BME280;20564;42.902;25.336;2022-12-29T04:31:41;98104.59;;;1.65;100.00
34297;BME280;20564;42.902;25.336;2022-12-29T04:34:09;98105.75;;;1.58;100.00
34297;BME280;20564;42.902;25.336;2022-12-29T04:36:36;98101.94;;;1.44;99.90
34297;BME280;20564;42.902;25.336;2022-12-29T04:39:03;98108.94;;;1.42;100.00
34297;BME280;20564;42.902;25.336;2022-12-29T04:41:33;98105.19;;;1.28;100.00
34297;BME280;20564;42.902;25.336;2022-12-29T04:44:00;98110.53;;;1.25;100.00
34297;BME280;20564;42.902;25.336;2022-12-29T04:46:26;98107.03;;;1.26;100.00
34297;BME280;20564;42.902;25.336;2022-12-29T04:48:53;98107.78;;;1.28;100.00
34297;BME280;20564;42.902;25.336;2022-12-29T04:51:20;98116.84;;;1.17;100.00
34297;BME280;20564;42.902;25.336;2022-12-29T04:53:47;98113.53;;;1.14;100.00
34297;BME280;20564;42.902;25.336;2022-12-29T04:56:14;98112.63;;;1.15;100.00
34297;BME280;20564;42.902;25.336;2022-12-29T04:58:41;98124.75;;;1.14;100.00
34297;BME280;20564;42.902;25.336;2022-12-29T05:01:08;98115.72;;;1.25;100.00
34297;BME280;20564;42.902;25.336;2022-12-29T05:03:35;98122.81;;;1.19;100.00
34297;BME280;20564;42.902;25.336;2022-12-29T05:06:02;98120.31;;;1.16;100.00
34297;BME280;20564;42.902;25.336;2022-12-29T05:08:29;98126.53;;;1.12;100.00
34297;BME280;20564;42.902;25.336;2022-12-29T05:10:57;98126.66;;;1.09;100.00
34297;BME280;20564;42.902;25.336;2022-12-29T05:13:24;98133.66;;;1.07;100.00
34297;BME280;20564;42.902;25.336;2022-12-29T05:15:55;98128.81;;;0.98;100.00
34297;BME280;20564;42.902;25.336;2022-12-29T05:18:22;98136.66;;;0.96;100.00
34297;BME280;20564;42.902;25.336;2022-12-29T05:20:49;98146.19;;;0.96;100.00
34297;BME280;20564;42.902;25.336;2022-12-29T05:23:16;98144.72;;;0.89;100.00
34297;BME280;20564;42.902;25.336;2022-12-29T05:25:44;98146.41;;;0.90;100.00
34297;BME280;20564;42.902;25.336;2022-12-29T05:28:12;98154.47;;;0.82;100.00
34297;BME280;20564;42.902;25.336;2022-12-29T05:30:39;98151.25;;;0.76;100.00
34297;BME280;20564;42.902;25.336;2022-12-29T05:33:06;98148.03;;;0.69;100.00
34297;BME280;20564;42.902;25.336;2022-12-29T05:35:33;98154.84;;;0.71;100.00
34297;BME280;20564;42.902;25.336;2022-12-29T05:38:00;98154.03;;;0.69;100.00
34297;BME280;20564;42.902;25.336;2022-12-29T05:40:27;98164.41;;;0.69;100.00
34297;BME280;20564;42.902;25.336;2022-12-29T05:42:57;98165.22;;;0.71;100.00
34297;BME280;20564;42.902;25.336;2022-12-29T05:45:24;98162.63;;;0.71;100.00
34297;BME280;20564;42.902;25.336;2022-12-29T05:47:50;98162.50;;;0.75;100.00
34297;BME280;20564;42.902;25.336;2022-12-29T05:50:17;98168.66;;;0.72;100.00
34297;BME280;20564;42.902;25.336;2022-12-29T05:52:44;98171.31;;;0.70;100.00
34297;BME280;20564;42.902;25.336;2022-12-29T05:55:11;98169.84;;;0.63;100.00
34297;BME280;20564;42.902;25.336;2022-12-29T05:57:38;98179.84;;;0.72;100.00
34297;BME280;20564;42.902;25.336;2022-12-29T06:00:06;98183.25;;;0.75;100.00
34297;BME280;20564;42.902;25.336;2022-12-29T06:02:34;98184.16;;;0.74;100.00
34297;BME280;20564;42.902;25.336;2022-12-29T06:05:00;98178.50;;;0.62;100.00
34297;BME280;20564;42.902;25.336;2022-12-29T06:07:27;98174.47;;;0.54;100.00
34297;BME280;20564;42.902;25.336;2022-12-29T06:09:54;98188.88;;;0.62;100.00
34297;BME280;20564;42.902;25.336;2022-12-29T06:12:21;98188.19;;;0.57;100.00
34297;BME280;20564;42.902;25.336;2022-12-29T06:14:48;98181.97;;;0.61;100.00
34297;BME280;20564;42.902;25.336;2022-12-29T06:17:15;98182.88;;;0.60;100.00
34297;BME280;20564;42.902;25.336;2022-12-29T06:19:42;98173.53;;;0.56;100.00
34297;BME280;20564;42.902;25.336;2022-12-29T06:22:10;98180.19;;;0.63;100.00
34297;BME280;20564;42.902;25.336;2022-12-29T06:24:39;98183.41;;;0.70;100.00
34297;BME280;20564;42.902;25.336;2022-12-29T06:27:06;98193.81;;;0.68;100.00
34297;BME280;20564;42.902;25.336;2022-12-29T06:29:33;98188.44;;;0.75;100.00
34297;BME280;20564;42.902;25.336;2022-12-29T06:32:01;98192.13;;;0.67;100.00
34297;BME280;20564;42.902;25.336;2022-12-29T06:34:29;98192.13;;;0.67;100.00
34297;BME280;20564;42.902;25.336;2022-12-29T06:36:55;98192.34;;;0.61;100.00
34297;BME280;20564;42.902;25.336;2022-12-29T06:39:23;98195.63;;;0.66;100.00
34297;BME280;20564;42.902;25.336;2022-12-29T06:41:52;98190.56;;;0.63;100.00
34297;BME280;20564;42.902;25.336;2022-12-29T06:44:20;98188.75;;;0.65;100.00
34297;BME280;20564;42.902;25.336;2022-12-29T06:46:48;98193.66;;;0.73;100.00
34297;BME280;20564;42.902;25.336;2022-12-29T06:49:15;98188.22;;;0.81;100.00
34297;BME280;20564;42.902;25.336;2022-12-29T06:51:42;98193.25;;;0.84;100.00
34297;BME280;20564;42.902;25.336;2022-12-29T06:54:09;98193.16;;;0.87;100.00
34297;BME280;20564;42.902;25.336;2022-12-29T06:56:36;98192.09;;;0.92;100.00
34297;BME280;20564;42.902;25.336;2022-12-29T06:59:03;98192.00;;;0.95;100.00
34297;BME280;20564;42.902;25.336;2022-12-29T07:01:30;98194.53;;;0.97;100.00
34297;BME280;20564;42.902;25.336;2022-12-29T07:03:57;98189.22;;;1.00;100.00
34297;BME280;20564;42.902;25.336;2022-12-29T07:06:27;98192.47;;;1.05;100.00
34297;BME280;20564;42.902;25.336;2022-12-29T07:08:54;98199.59;;;1.00;100.00
34297;BME280;20564;42.902;25.336;2022-12-29T07:11:21;98193.31;;;1.06;100.00
34297;BME280;20564;42.902;25.336;2022-12-29T07:13:48;98192.59;;;1.02;100.00
34297;BME280;20564;42.902;25.336;2022-12-29T07:16:15;98195.81;;;1.09;100.00
34297;BME280;20564;42.902;25.336;2022-12-29T07:18:42;98198.25;;;1.13;100.00
34297;BME280;20564;42.902;25.336;2022-12-29T07:21:09;98201.69;;;1.14;100.00
34297;BME280;20564;42.902;25.336;2022-12-29T07:23:36;98194.50;;;1.20;100.00
34297;BME280;20564;42.902;25.336;2022-12-29T07:26:06;98178.16;;;1.18;100.00
34297;BME280;20564;42.902;25.336;2022-12-29T07:28:35;98196.66;;;1.33;100.00
34297;BME280;20564;42.902;25.336;2022-12-29T07:31:02;98193.69;;;1.42;100.00
34297;BME280;20564;42.902;25.336;2022-12-29T07:33:29;98188.69;;;1.59;100.00
34297;BME280;20564;42.902;25.336;2022-12-29T07:35:56;98189.31;;;1.66;100.00
34297;BME280;20564;42.902;25.336;2022-12-29T07:38:25;98196.91;;;1.71;100.00
34297;BME280;20564;42.902;25.336;2022-12-29T07:40:56;98199.91;;;1.82;100.00
34297;BME280;20564;42.902;25.336;2022-12-29T07:43:24;98208.38;;;1.87;100.00
34297;BME280;20564;42.902;25.336;2022-12-29T07:45:51;98203.91;;;1.90;100.00
34297;BME280;20564;42.902;25.336;2022-12-29T07:48:17;98206.97;;;2.00;100.00
34297;BME280;20564;42.902;25.336;2022-12-29T07:50:44;98198.94;;;2.06;100.00
34297;BME280;20564;42.902;25.336;2022-12-29T07:53:11;98207.84;;;2.21;100.00
34297;BME280;20564;42.902;25.336;2022-12-29T07:55:39;98199.34;;;2.38;100.00
34297;BME280;20564;42.902;25.336;2022-12-29T07:58:05;98203.81;;;2.55;100.00
34297;BME280;20564;42.902;25.336;2022-12-29T08:00:32;98201.44;;;2.71;100.00
34297;BME280;20564;42.902;25.336;2022-12-29T08:02:59;98209.97;;;2.93;100.00
34297;BME280;20564;42.902;25.336;2022-12-29T08:05:26;98191.78;;;3.12;100.00
34297;BME280;20564;42.902;25.336;2022-12-29T08:07:53;98200.56;;;3.28;100.00
34297;BME280;20564;42.902;25.336;2022-12-29T08:10:20;98205.00;;;3.45;100.00
34297;BME280;20564;42.902;25.336;2022-12-29T08:12:46;98195.72;;;3.58;100.00
34297;BME280;20564;42.902;25.336;2022-12-29T08:15:13;98195.41;;;3.65;100.00
34297;BME280;20564;42.902;25.336;2022-12-29T08:17:41;98193.13;;;3.76;100.00
34297;BME280;20564;42.902;25.336;2022-12-29T08:20:08;98204.53;;;3.92;100.00
34297;BME280;20564;42.902;25.336;2022-12-29T08:22:35;98199.31;;;4.09;100.00
34297;BME280;20564;42.902;25.336;2022-12-29T08:25:03;98195.97;;;4.25;100.00
34297;BME280;20564;42.902;25.336;2022-12-29T08:27:30;98195.34;;;4.37;100.00
34297;BME280;20564;42.902;25.336;2022-12-29T08:29:57;98191.28;;;4.49;98.36
34297;BME280;20564;42.902;25.336;2022-12-29T08:32:24;98183.19;;;4.71;95.51
34297;BME280;20564;42.902;25.336;2022-12-29T08:34:51;98178.94;;;4.86;95.72
34297;BME280;20564;42.902;25.336;2022-12-29T08:37:18;98183.44;;;4.99;94.86
34297;BME280;20564;42.902;25.336;2022-12-29T08:39:44;98184.34;;;5.16;93.75
34297;BME280;20564;42.902;25.336;2022-12-29T08:42:11;98176.56;;;5.30;93.30
34297;BME280;20564;42.902;25.336;2022-12-29T08:44:38;98187.88;;;5.46;92.15
34297;BME280;20564;42.902;25.336;2022-12-29T08:47:05;98181.41;;;5.53;92.64
34297;BME280;20564;42.902;25.336;2022-12-29T08:49:32;98179.81;;;5.67;92.14
34297;BME280;20564;42.902;25.336;2022-12-29T08:51:59;98168.84;;;5.76;91.26
34297;BME280;20564;42.902;25.336;2022-12-29T08:54:26;98174.56;;;5.98;90.17
34297;BME280;20564;42.902;25.336;2022-12-29T08:56:53;98172.94;;;6.12;88.02
34297;BME280;20564;42.902;25.336;2022-12-29T08:59:20;98164.38;;;6.24;88.17
34297;BME280;20564;42.902;25.336;2022-12-29T09:01:47;98166.47;;;6.33;86.88
34297;BME280;20564;42.902;25.336;2022-12-29T09:04:14;98157.88;;;6.45;87.07
34297;BME280;20564;42.902;25.336;2022-12-29T09:06:44;98162.03;;;6.64;86.96
34297;BME280;20564;42.902;25.336;2022-12-29T09:09:12;98158.66;;;6.76;85.83
34297;BME280;20564;42.902;25.336;2022-12-29T09:11:39;98151.41;;;6.95;84.26
34297;BME280;20564;42.902;25.336;2022-12-29T09:14:06;98150.53;;;7.09;82.16
34297;BME280;20564;42.902;25.336;2022-12-29T09:16:33;98139.38;;;7.20;82.07
34297;BME280;20564;42.902;25.336;2022-12-29T09:19:01;98139.66;;;7.30;82.04
34297;BME280;20564;42.902;25.336;2022-12-29T09:21:27;98128.81;;;7.36;81.29
34297;BME280;20564;42.902;25.336;2022-12-29T09:23:54;98128.97;;;7.47;80.92
34297;BME280;20564;42.902;25.336;2022-12-29T09:26:21;98126.56;;;7.57;80.75
34297;BME280;20564;42.902;25.336;2022-12-29T09:28:48;98120.56;;;7.69;80.22
34297;BME280;20564;42.902;25.336;2022-12-29T09:31:15;98107.03;;;7.75;79.17
34297;BME280;20564;42.902;25.336;2022-12-29T09:33:42;98113.94;;;7.90;79.20
34297;BME280;20564;42.902;25.336;2022-12-29T09:36:08;98108.06;;;8.00;78.40
34297;BME280;20564;42.902;25.336;2022-12-29T09:38:36;98107.47;;;8.09;77.52
34297;BME280;20564;42.902;25.336;2022-12-29T09:41:11;98107.03;;;8.15;76.65
34297;BME280;20564;42.902;25.336;2022-12-29T09:50:40;98095.47;;;8.57;74.88
34297;BME280;20564;42.902;25.336;2022-12-29T10:01:34;98059.41;;;8.98;72.69
34297;BME280;20564;42.902;25.336;2022-12-29T10:04:15;98058.97;;;9.04;73.76
34297;BME280;20564;42.902;25.336;2022-12-29T10:07:02;98055.19;;;9.08;72.15
34297;BME280;20564;42.902;25.336;2022-12-29T10:10:09;98062.91;;;9.22;71.78
34297;BME280;20564;42.902;25.336;2022-12-29T10:13:19;98048.75;;;9.36;70.52
34297;BME280;20564;42.902;25.336;2022-12-29T10:15:59;98048.50;;;9.52;69.18
34297;BME280;20564;42.902;25.336;2022-12-29T10:24:14;98050.06;;;9.89;68.54
34297;BME280;20564;42.902;25.336;2022-12-29T10:26:43;98035.97;;;10.02;66.36
34297;BME280;20564;42.902;25.336;2022-12-29T10:29:37;98047.50;;;10.12;67.09
34297;BME280;20564;42.902;25.336;2022-12-29T10:32:30;98037.63;;;10.27;65.91
34297;BME280;20564;42.902;25.336;2022-12-29T10:35:09;98039.94;;;10.43;64.81
34297;BME280;20564;42.902;25.336;2022-12-29T10:38:01;98033.94;;;10.52;65.17
34297;BME280;20564;42.902;25.336;2022-12-29T10:40:36;98030.72;;;10.59;63.79
34297;BME280;20564;42.902;25.336;2022-12-29T10:43:56;98028.31;;;10.56;64.83
34297;BME280;20564;42.902;25.336;2022-12-29T10:46:21;98024.16;;;10.54;66.71
34297;BME280;20564;42.902;25.336;2022-12-29T10:48:50;98025.22;;;10.51;67.79
34297;BME280;20564;42.902;25.336;2022-12-29T10:51:35;98024.03;;;10.55;66.85
34297;BME280;20564;42.902;25.336;2022-12-29T10:54:10;98018.66;;;10.57;66.23
34297;BME280;20564;42.902;25.336;2022-12-29T10:56:52;98011.94;;;10.75;65.30
34297;BME280;20564;42.902;25.336;2022-12-29T10:59:33;98008.31;;;10.99;63.81
34297;BME280;20564;42.902;25.336;2022-12-29T11:05:02;98005.38;;;11.24;62.37
34297;BME280;20564;42.902;25.336;2022-12-29T11:07:35;98009.63;;;11.37;62.84
34297;BME280;20564;42.902;25.336;2022-12-29T11:10:20;98011.75;;;11.54;60.94
34297;BME280;20564;42.902;25.336;2022-12-29T11:13:01;98002.34;;;11.61;60.10
34297;BME280;20564;42.902;25.336;2022-12-29T11:15:48;97992.72;;;11.71;61.55
34297;BME280;20564;42.902;25.336;2022-12-29T11:18:26;97998.16;;;11.91;60.79
34297;BME280;20564;42.902;25.336;2022-12-29T11:21:02;97985.72;;;12.02;59.36
34297;BME280;20564;42.902;25.336;2022-12-29T11:26:19;97986.88;;;12.30;58.35
34297;BME280;20564;42.902;25.336;2022-12-29T11:29:04;97986.72;;;12.32;59.02
34297;BME280;20564;42.902;25.336;2022-12-29T11:31:55;97988.66;;;12.61;58.09
34297;BME280;20564;42.902;25.336;2022-12-29T11:34:31;97984.47;;;12.89;55.54
34297;BME280;20564;42.902;25.336;2022-12-29T11:37:04;97974.03;;;12.97;57.18
34297;BME280;20564;42.902;25.336;2022-12-29T11:39:39;97978.66;;;13.14;56.12
34297;BME280;20564;42.902;25.336;2022-12-29T11:42:16;97984.56;;;13.27;56.45
34297;BME280;20564;42.902;25.336;2022-12-29T11:44:46;97976.19;;;13.42;55.74
34297;BME280;20564;42.902;25.336;2022-12-29T11:47:34;97980.94;;;13.48;56.09
34297;BME280;20564;42.902;25.336;2022-12-29T11:50:05;97975.25;;;13.62;55.40
34297;BME280;20564;42.902;25.336;2022-12-29T11:52:35;97979.41;;;13.74;54.38
34297;BME280;20564;42.902;25.336;2022-12-29T11:55:17;97966.31;;;13.83;54.24
34297;BME280;20564;42.902;25.336;2022-12-29T11:57:45;97964.78;;;13.90;54.41
34297;BME280;20564;42.902;25.336;2022-12-29T12:00:19;97960.88;;;13.94;54.48
34297;BME280;20564;42.902;25.336;2022-12-29T12:03:04;97959.59;;;13.98;53.96
34297;BME280;20564;42.902;25.336;2022-12-29T12:05:49;97953.31;;;14.09;53.59
34297;BME280;20564;42.902;25.336;2022-12-29T12:11:15;97942.47;;;13.92;52.77
34297;BME280;20564;42.902;25.336;2022-12-29T12:16:28;97955.59;;;13.74;53.68
34297;BME280;20564;42.902;25.336;2022-12-29T12:19:04;97944.06;;;13.66;53.74
34297;BME280;20564;42.902;25.336;2022-12-29T12:21:40;97951.44;;;13.62;54.74
34297;BME280;20564;42.902;25.336;2022-12-29T12:32:15;97928.06;;;13.58;54.70
34297;BME280;20564;42.902;25.336;2022-12-29T12:34:45;97932.78;;;13.54;55.08
34297;BME280;20564;42.902;25.336;2022-12-29T12:40:24;97937.97;;;13.46;53.71
34297;BME280;20564;42.902;25.336;2022-12-29T12:51:22;97930.97;;;13.25;54.96
34297;BME280;20564;42.902;25.336;2022-12-29T12:56:51;97939.75;;;13.26;54.69
34297;BME280;20564;42.902;25.336;2022-12-29T12:59:36;97933.88;;;13.13;55.06
34297;BME280;20564;42.902;25.336;2022-12-29T13:02:34;97942.19;;;13.08;54.88
34297;BME280;20564;42.902;25.336;2022-12-29T13:08:32;97936.63;;;13.01;54.86
34297;BME280;20564;42.902;25.336;2022-12-29T13:14:08;97939.97;;;12.84;56.17
34297;BME280;20564;42.902;25.336;2022-12-29T13:16:46;97946.75;;;12.77;55.88
34297;BME280;20564;42.902;25.336;2022-12-29T13:22:09;97946.81;;;12.56;56.89
34297;BME280;20564;42.902;25.336;2022-12-29T13:28:31;97946.50;;;12.40;57.03
34297;BME280;20564;42.902;25.336;2022-12-29T13:31:15;97956.28;;;12.28;57.93
34297;BME280;20564;42.902;25.336;2022-12-29T13:36:43;97958.53;;;12.02;60.21
34297;BME280;20564;42.902;25.336;2022-12-29T13:39:34;97954.69;;;11.85;62.10
34297;BME280;20564;42.902;25.336;2022-12-29T13:42:03;97971.13;;;11.77;62.62
34297;BME280;20564;42.902;25.336;2022-12-29T13:44:37;97964.94;;;11.67;64.23
34297;BME280;20564;42.902;25.336;2022-12-29T13:47:27;97967.38;;;11.59;63.97
34297;BME280;20564;42.902;25.336;2022-12-29T13:49:57;97962.38;;;11.56;64.89
34297;BME280;20564;42.902;25.336;2022-12-29T13:52:36;97955.53;;;11.53;64.74
34297;BME280;20564;42.902;25.336;2022-12-29T13:58:25;97958.56;;;11.49;64.71
34297;BME280;20564;42.902;25.336;2022-12-29T14:04:02;97974.75;;;11.44;66.65
34297;BME280;20564;42.902;25.336;2022-12-29T14:06:35;97968.03;;;11.40;67.04
34297;BME280;20564;42.902;25.336;2022-12-29T14:09:42;97964.13;;;11.34;67.30
34297;BME280;20564;42.902;25.336;2022-12-29T14:15:15;97970.69;;;11.08;70.04
34297;BME280;20564;42.902;25.336;2022-12-29T14:21:00;97969.31;;;10.70;71.83
34297;BME280;20564;42.902;25.336;2022-12-29T14:23:44;97977.97;;;10.50;72.81
34297;BME280;20564;42.902;25.336;2022-12-29T14:29:43;97977.44;;;10.11;74.63
34297;BME280;20564;42.902;25.336;2022-12-29T14:34:58;97993.84;;;9.79;76.30
34297;BME280;20564;42.902;25.336;2022-12-29T14:37:30;97997.66;;;9.64;77.84
34297;BME280;20564;42.902;25.336;2022-12-29T14:40:23;98002.47;;;9.46;78.92
34297;BME280;20564;42.902;25.336;2022-12-29T14:42:56;97997.94;;;9.24;79.51
34297;BME280;20564;42.902;25.336;2022-12-29T14:45:27;97997.41;;;9.08;80.29
34297;BME280;20564;42.902;25.336;2022-12-29T14:47:56;97991.78;;;8.88;80.80
34297;BME280;20564;42.902;25.336;2022-12-29T14:50:35;98001.28;;;8.78;81.26
34297;BME280;20564;42.902;25.336;2022-12-29T14:53:09;97993.97;;;8.58;82.58
34297;BME280;20564;42.902;25.336;2022-12-29T14:55:55;97998.84;;;8.38;83.66
34297;BME280;20564;42.902;25.336;2022-12-29T14:59:04;97998.16;;;8.22;83.65
34297;BME280;20564;42.902;25.336;2022-12-29T15:01:55;98000.88;;;8.08;83.79
34297;BME280;20564;42.902;25.336;2022-12-29T15:04:32;98007.38;;;7.89;84.70
34297;BME280;20564;42.902;25.336;2022-12-29T15:07:09;98010.31;;;7.72;85.63
34297;BME280;20564;42.902;25.336;2022-12-29T15:09:42;98013.59;;;7.48;87.44
34297;BME280;20564;42.902;25.336;2022-12-29T15:17:33;98010.22;;;7.07;87.62
34297;BME280;20564;42.902;25.336;2022-12-29T15:20:30;98010.44;;;6.89;87.46